Time;durP1;ratioP1;P1;durP2;ratioP2;P2;SDS_P1;SDS_P2;PMS_P1;PMS_P2;Temp;Humidity;BMP_temperature;BMP_pressure;BME280_temperature;BME280_humidity;BME280_pressure;Samples;Min_cycle;Max_cycle;Signal;HPM_P1;HPM_P2
2023/03/21 00:01:51;;;;;;;8.15;4.03;;;;;;;23.96;35.62;99648.88;4375489;32;32558;-62
2023/03/21 00:04:20;;;;;;;6.55;3.97;;;;;;;23.96;35.63;99651.59;4375715;32;33568;-69
2023/03/21 00:06:47;;;;;;;7.97;3.67;;;;;;;23.95;35.57;99648.03;4377228;32;33989;-65
2023/03/21 00:09:15;;;;;;;6.95;3.65;;;;;;;23.94;35.63;99651.81;4376894;32;33818;-65
2023/03/21 00:11:44;;;;;;;10.57;4.43;;;;;;;23.92;35.65;99643.03;4376731;32;33955;-62
2023/03/21 00:14:18;;;;;;;5.93;3.65;;;;;;;23.92;35.63;99640.31;4375566;32;33441;-67
2023/03/21 00:16:49;;;;;;;8.23;3.80;;;;;;;23.91;35.67;99644.09;4375630;32;34570;-65
2023/03/21 00:19:18;;;;;;;;;;;;;;;23.90;35.69;99637.84;4375976;32;34766;-69
2023/03/21 00:21:45;;;;;;;6.45;3.70;;;;;;;23.99;35.48;99635.59;4375609;32;34837;-65
2023/03/21 00:24:32;;;;;;;5.47;3.50;;;;;;;23.94;35.63;99632.75;4375825;32;34323;-69
2023/03/21 00:26:59;;;;;;;7.37;3.70;;;;;;;23.91;35.68;99636.75;4376093;32;33318;-70
2023/03/21 00:29:50;;;;;;;5.82;3.22;;;;;;;23.89;35.75;99640.81;4365470;32;33067;-62
2023/03/21 00:32:18;;;;;;;6.37;3.53;;;;;;;23.89;35.78;99638.91;4351071;32;33761;-64
2023/03/21 00:34:47;;;;;;;6.93;3.72;;;;;;;23.88;35.81;99637.25;4375624;32;33118;-63
2023/03/21 00:37:34;;;;;;;7.55;3.50;;;;;;;23.89;35.83;99633.44;4375568;32;34857;-70
2023/03/21 00:40:07;;;;;;;6.68;3.75;;;;;;;23.87;35.91;99624.66;4375470;32;33971;-67
2023/03/21 00:42:49;;;;;;;6.40;3.67;;;;;;;23.85;35.98;99625.97;4364979;32;32805;-66
2023/03/21 00:45:18;;;;;;;5.05;3.10;;;;;;;23.89;36.05;99624.44;4375567;32;33446;-68
2023/03/21 00:47:45;;;;;;;7.55;4.00;;;;;;;23.88;36.05;99628.25;4363077;32;33658;-67
2023/03/21 00:50:13;;;;;;;7.40;3.25;;;;;;;23.88;36.06;99631.81;4373899;32;33931;-67
2023/03/21 00:52:41;;;;;;;5.85;3.10;;;;;;;23.88;36.04;99625.53;4361605;32;33745;-61
2023/03/21 00:55:12;;;;;;;6.57;3.42;;;;;;;23.87;36.04;99621.94;4360492;32;32268;-68
2023/03/21 00:57:41;;;;;;;5.93;3.10;;;;;;;23.86;36.07;99623.00;4360183;32;33762;-63
2023/03/21 01:00:14;;;;;;;6.68;3.20;;;;;;;23.87;36.01;99619.22;4361329;32;33875;-68
2023/03/21 01:02:55;;;;;;;5.43;3.25;;;;;;;23.88;35.99;99617.34;4360240;32;34253;-62
2023/03/21 01:08:22;;;;;;;6.15;3.35;;;;;;;23.87;36.01;99615.66;4360988;32;33946;-66
2023/03/21 01:10:55;;;;;;;5.45;3.22;;;;;;;23.86;36.04;99616.72;4361567;32;33714;-70
2023/03/21 01:13:23;;;;;;;6.72;3.53;;;;;;;23.85;36.02;99617.81;4360094;32;33723;-66
2023/03/21 01:15:53;;;;;;;5.82;3.85;;;;;;;23.84;36.07;99616.16;4361539;32;32972;-71
2023/03/21 01:18:23;;;;;;;6.17;3.47;;;;;;;23.84;36.06;99618.88;4348276;32;34733;-65
2023/03/21 01:20:51;;;;;;;6.28;3.00;;;;;;;23.84;36.06;99616.97;4361498;32;34100;-67
2023/03/21 01:23:19;;;;;;;6.05;3.47;;;;;;;23.83;36.04;99609.88;4360169;32;33528;-67
2023/03/21 01:25:48;;;;;;;6.40;3.83;;;;;;;23.83;36.10;99611.78;4372553;32;33372;-67
2023/03/21 01:28:16;;;;;;;7.33;3.50;;;;;;;23.82;36.10;99616.38;4360180;32;33909;-62
2023/03/21 01:30:45;;;;;;;6.53;3.15;;;;;;;23.83;36.07;99611.78;4361582;32;34742;-70
2023/03/21 01:33:13;;;;;;;7.30;3.23;;;;;;;23.82;36.13;99615.53;4359795;32;32986;-65
2023/03/21 01:35:41;;;;;;;5.00;3.30;;;;;;;23.81;36.09;99614.72;4372504;32;33339;-65
2023/03/21 01:38:22;;;;;;;6.35;3.37;;;;;;;23.80;36.06;99607.59;4370026;32;33637;-65
2023/03/21 01:40:50;;;;;;;5.20;2.83;;;;;;;23.80;36.08;99610.34;4359931;32;33021;-69
2023/03/21 01:43:22;;;;;;;5.60;3.20;;;;;;;23.78;36.08;99612.47;4361436;32;33553;-63
2023/03/21 01:46:05;;;;;;;5.60;3.05;;;;;;;23.78;36.11;99614.34;4359934;32;33408;-68
2023/03/21 01:48:37;;;;;;;6.43;3.40;;;;;;;23.78;36.10;99615.19;4361221;32;33511;-64
2023/03/21 01:51:05;;;;;;;5.10;2.87;;;;;;;23.78;36.13;99611.63;4355124;32;32577;-64
2023/03/21 01:53:33;;;;;;;5.87;3.42;;;;;;;23.77;36.16;99618.13;4362346;32;33820;-69
2023/03/21 01:56:05;;;;;;;5.35;3.40;;;;;;;23.78;36.16;99619.78;4374656;32;33472;-64
2023/03/21 01:58:35;;;;;;;5.25;3.12;;;;;;;23.76;36.22;99621.94;4362264;32;32786;-68
2023/03/21 02:01:04;;;;;;;7.00;3.08;;;;;;;23.74;36.25;99613.16;4375965;32;34657;-66
2023/03/21 02:03:36;;;;;;;5.15;3.12;;;;;;;23.75;36.26;99618.38;4374928;32;34016;-63
2023/03/21 02:06:08;;;;;;;5.30;3.10;;;;;;;23.75;36.28;99612.09;4374831;32;33055;-67
2023/03/21 02:08:36;;;;;;;7.20;3.47;;;;;;;23.74;36.29;99610.44;4362417;32;32632;-65
2023/03/21 02:11:07;;;;;;;5.82;3.15;;;;;;;23.74;36.26;99622.16;4374356;32;34206;-66
2023/03/21 02:13:35;;;;;;;5.40;3.08;;;;;;;23.74;36.27;99624.91;4374775;32;33600;-70
2023/03/21 02:16:18;;;;;;;6.00;3.22;;;;;;;23.75;36.27;99618.38;4375746;32;33157;-64
2023/03/21 02:18:58;;;;;;;5.28;3.42;;;;;;;23.75;36.28;99610.19;4374706;32;33410;-68
2023/03/21 02:21:27;;;;;;;4.32;3.08;;;;;;;23.75;36.29;99614.81;4350373;32;32886;-65
2023/03/21 02:24:09;;;;;;;6.25;3.37;;;;;;;23.73;36.30;99616.94;4374156;32;33904;-66
2023/03/21 02:26:45;;;;;;;5.68;3.50;;;;;;;23.73;36.29;99609.59;4374007;32;33377;-67
2023/03/21 02:29:17;;;;;;;6.10;3.00;;;;;;;23.72;36.30;99615.28;4374624;32;33933;-69
2023/03/21 02:31:54;;;;;;;5.07;2.90;;;;;;;23.72;36.28;99613.37;4375436;32;33900;-69
2023/03/21 02:34:27;;;;;;;5.68;3.35;;;;;;;23.71;36.26;99611.72;4374150;32;34374;-68
2023/03/21 02:37:01;;;;;;;4.53;2.80;;;;;;;23.70;36.29;99607.34;4375322;32;33527;-69
2023/03/21 02:39:46;;;;;;;5.15;2.83;;;;;;;23.71;36.29;99617.19;4373923;32;34670;-67
2023/03/21 02:42:20;;;;;;;5.62;3.10;;;;;;;23.71;36.29;99619.06;4373989;32;33693;-70
2023/03/21 02:44:57;;;;;;;8.05;3.67;;;;;;;23.70;36.29;99617.41;4361868;32;33131;-62
2023/03/21 02:47:32;;;;;;;4.93;3.00;;;;;;;23.68;36.29;99613.00;4375169;32;33486;-68
2023/03/21 02:50:22;;;;;;;4.90;3.08;;;;;;;23.68;36.29;99613.00;4350454;32;33956;-65
2023/03/21 02:52:51;;;;;;;3.87;2.58;;;;;;;23.68;36.27;99610.28;4363957;32;34091;-63
2023/03/21 02:55:24;;;;;;;4.70;3.00;;;;;;;23.68;36.27;99614.91;4363929;32;34051;-68
2023/03/21 02:57:54;;;;;;;7.95;2.87;;;;;;;23.67;36.33;99621.44;4364207;32;33233;-65
2023/03/21 03:00:26;;;;;;;5.82;3.12;;;;;;;23.67;36.28;99618.69;4376468;32;34058;-64
2023/03/21 03:02:54;;;;;;;4.82;2.92;;;;;;;23.66;36.30;99617.88;4376213;32;34245;-62
2023/03/21 03:05:55;;;;;;;5.15;3.10;;;;;;;23.67;36.30;99614.09;4377273;32;33595;-66
2023/03/21 03:08:46;;;;;;;5.55;2.67;;;;;;;23.68;36.27;99613.00;4376017;32;33829;-66
2023/03/21 03:11:39;;;;;;;5.47;3.10;;;;;;;23.67;36.31;99614.09;4376307;32;33741;-68
2023/03/21 03:14:36;;;;;;;4.43;2.92;;;;;;;23.67;36.31;99616.81;4363786;32;33718;-64
2023/03/21 03:17:39;;;;;;;6.25;3.25;;;;;;;23.67;36.29;99618.69;4376477;32;33711;-62
2023/03/21 03:20:12;;;;;;;6.00;3.00;;;;;;;23.64;36.35;99620.00;4376134;32;33058;-63
2023/03/21 03:23:06;;;;;;;4.85;2.55;;;;;;;23.61;36.41;99619.59;4375904;32;34682;-61
2023/03/21 03:25:47;;;;;;;4.05;2.78;;;;;;;23.60;36.39;99621.50;4377528;32;34737;-64
2023/03/21 03:28:18;;;;;;;4.85;2.90;;;;;;;23.62;36.35;99619.37;4364224;32;34727;-65
2023/03/21 03:30:46;;;;;;;6.00;2.75;;;;;;;23.60;36.39;99617.97;4376428;32;34126;-67
2023/03/21 03:33:33;;;;;;;4.62;2.70;;;;;;;23.60;36.38;99613.34;4365903;32;33818;-65
2023/03/21 03:36:01;;;;;;;6.07;2.87;;;;;;;23.60;36.36;99618.78;4376085;32;34314;-61
2023/03/21 03:38:33;;;;;;;6.18;2.85;;;;;;;23.61;36.36;99611.44;4363918;32;33624;-64
2023/03/21 03:41:02;;;;;;;5.25;2.90;;;;;;;23.61;36.31;99606.00;4375794;32;33740;-65
2023/03/21 03:43:40;;;;;;;5.07;2.83;;;;;;;23.60;36.32;99612.50;4376118;32;33944;-63
2023/03/21 03:46:12;;;;;;;4.68;2.85;;;;;;;23.61;36.34;99615.00;4376380;32;33908;-68
2023/03/21 03:48:47;;;;;;;4.53;2.67;;;;;;;23.60;36.33;99616.06;4363912;32;32911;-68
2023/03/21 03:51:20;;;;;;;5.53;3.20;;;;;;;23.62;36.34;99618.53;4364183;32;33464;-69
2023/03/21 03:53:52;;;;;;;4.32;2.40;;;;;;;23.60;36.36;99613.34;4346125;33;33528;-62
2023/03/21 03:56:20;;;;;;;4.78;2.83;;;;;;;23.60;36.38;99617.97;4334027;33;34094;-65
2023/03/21 03:58:48;;;;;;;4.70;3.08;;;;;;;23.60;36.40;99618.78;4347149;33;35896;-69
2023/03/21 04:01:16;;;;;;;5.45;2.95;;;;;;;23.60;36.39;99618.78;4332755;33;32422;-67
2023/03/21 04:03:47;;;;;;;4.45;2.50;;;;;;;23.61;36.40;99622.34;4346026;33;34712;-65
2023/03/21 04:06:23;;;;;;;5.10;2.60;;;;;;;23.59;36.41;99622.53;4347085;33;34648;-69
2023/03/21 04:08:51;;;;;;;5.12;2.72;;;;;;;23.60;36.40;99612.50;4347108;33;33445;-63
2023/03/21 04:11:18;;;;;;;4.68;2.58;;;;;;;23.58;36.41;99612.72;4345928;33;32966;-65
2023/03/21 04:13:46;;;;;;;6.80;2.92;;;;;;;23.58;36.41;99615.44;4347360;33;33935;-66
2023/03/21 04:16:18;;;;;;;6.18;2.70;;;;;;;23.59;36.43;99610.81;4345802;33;33233;-66
2023/03/21 04:18:46;;;;;;;5.20;2.72;;;;;;;23.58;36.40;99607.28;4346247;33;33021;-69
2023/03/21 04:21:17;;;;;;;4.82;2.80;;;;;;;23.57;36.47;99607.50;4346206;33;33278;-64
2023/03/21 04:23:44;;;;;;;4.97;2.90;;;;;;;23.57;36.48;99611.06;4345662;33;33643;-64
2023/03/21 04:26:12;;;;;;;10.50;2.97;;;;;;;23.56;36.45;99611.31;4345762;33;33691;-65
2023/03/21 04:28:40;;;;;;;5.62;2.83;;;;;;;23.57;36.46;99616.50;4347187;33;34637;-64
2023/03/21 04:31:12;;;;;;;5.00;2.72;;;;;;;23.56;36.47;99612.13;4347009;33;33123;-63
2023/03/21 04:33:52;;;;;;;4.22;2.45;;;;;;;23.56;36.47;99611.31;4335211;33;32910;-66
2023/03/21 04:36:26;;;;;;;7.07;3.15;;;;;;;23.55;36.48;99609.63;4346765;33;33886;-63
2023/03/21 04:38:59;;;;;;;5.35;2.70;;;;;;;23.54;36.53;99611.53;4334427;33;33212;-69
2023/03/21 04:41:27;;;;;;;4.32;2.87;;;;;;;23.53;36.59;99612.59;4347032;33;33285;-65
2023/03/21 04:43:56;;;;;;;6.37;2.47;;;;;;;23.52;36.55;99610.09;4333758;33;32844;-62
2023/03/21 04:46:23;;;;;;;5.47;3.08;;;;;;;23.51;36.56;99614.72;4346014;33;33940;-65
2023/03/21 04:48:51;;;;;;;7.15;2.67;;;;;;;23.50;36.56;99613.06;4345733;33;33500;-64
2023/03/21 04:51:18;;;;;;;5.72;2.72;;;;;;;23.50;36.54;99610.34;4363678;32;32269;-66
2023/03/21 04:53:48;;;;;;;5.30;2.80;;;;;;;23.52;36.55;99610.94;4375531;32;34373;-64
2023/03/21 04:56:15;;;;;;;3.95;2.50;;;;;;;23.52;36.51;99610.94;4376639;32;33923;-67
2023/03/21 04:58:44;;;;;;;4.47;2.50;;;;;;;23.53;36.49;99611.75;4375334;32;32818;-63
2023/03/21 05:01:13;;;;;;;5.40;2.40;;;;;;;23.52;36.51;99602.75;4375154;32;34049;-62
2023/03/21 05:03:41;;;;;;;5.43;2.83;;;;;;;23.54;36.49;99610.69;4375350;32;34663;-65
2023/03/21 05:06:09;;;;;;;5.07;2.85;;;;;;;23.53;36.50;99614.47;4376592;32;33826;-64
2023/03/21 05:08:37;;;;;;;5.10;3.05;;;;;;;23.53;36.50;99615.31;4376482;32;33450;-67
2023/03/21 05:11:04;;;;;;;6.55;3.00;;;;;;;23.52;36.49;99621.81;4374920;32;34120;-62
2023/03/21 05:13:32;;;;;;;4.05;2.47;;;;;;;23.52;36.50;99621.81;4375101;32;34069;-66
2023/03/21 05:16:00;;;;;;;6.18;2.70;;;;;;;23.52;36.50;99621.81;4374870;32;33968;-67
2023/03/21 05:18:29;;;;;;;4.55;2.72;;;;;;;23.52;36.48;99627.28;4376551;32;34666;-64
2023/03/21 05:20:57;;;;;;;4.07;2.58;;;;;;;23.51;36.48;99625.63;4375347;32;34243;-64
2023/03/21 05:23:30;;;;;;;5.20;2.53;;;;;;;23.52;36.47;99623.72;4362878;32;33914;-65
2023/03/21 05:25:58;;;;;;;4.50;2.65;;;;;;;23.52;36.48;99626.44;4375017;32;34185;-63
2023/03/21 05:28:30;;;;;;;4.53;2.50;;;;;;;23.52;36.48;99632.72;4376485;32;34649;-67
2023/03/21 05:30:58;;;;;;;4.55;2.90;;;;;;;23.51;36.48;99631.06;4374937;32;34273;-61
2023/03/21 05:33:25;;;;;;;3.87;2.62;;;;;;;23.50;36.49;99629.41;4376149;32;34081;-70
2023/03/21 05:35:53;;;;;;;5.43;2.70;;;;;;;23.52;36.49;99635.44;4375056;32;33983;-67
2023/03/21 05:38:21;;;;;;;3.95;2.47;;;;;;;23.50;36.48;99629.41;4375151;32;33718;-66
2023/03/21 05:40:49;;;;;;;6.30;2.67;;;;;;;23.50;36.51;99629.41;4375193;32;34354;-67
2023/03/21 05:43:16;;;;;;;8.15;2.80;;;;;;;23.51;36.51;99635.69;4375220;32;33603;-66
2023/03/21 05:45:44;;;;;;;4.12;2.50;;;;;;;23.50;36.50;99639.44;4374679;32;32940;-65
2023/03/21 05:48:12;;;;;;;4.90;2.62;;;;;;;23.51;36.53;99641.13;4376026;32;34313;-61
2023/03/21 05:50:41;;;;;;;4.97;2.42;;;;;;;23.50;36.53;99644.88;4362319;32;32515;-62
2023/03/21 05:53:09;;;;;;;4.55;2.50;;;;;;;23.52;36.48;99651.78;4387237;32;34031;-64
2023/03/21 05:55:37;;;;;;;4.20;2.60;;;;;;;23.49;36.48;99646.78;4374731;32;34017;-63
2023/03/21 05:58:06;;;;;;;4.40;2.90;;;;;;;23.50;36.50;99656.63;4387459;32;32872;-67
2023/03/21 06:00:34;;;;;;;4.78;2.78;;;;;;;23.50;36.48;99655.78;4374596;32;33824;-65
2023/03/21 06:03:04;;;;;;;4.37;2.78;;;;;;;23.49;36.51;99652.22;4374726;32;33981;-62
2023/03/21 06:05:32;;;;;;;6.15;2.50;;;;;;;23.49;36.51;99649.50;4374546;32;33552;-61
2023/03/21 06:08:00;;;;;;;4.82;2.33;;;;;;;23.48;36.54;99656.03;4362280;32;34211;-63
2023/03/21 06:10:28;;;;;;;3.92;2.25;;;;;;;23.47;36.55;99654.38;4362190;32;34263;-61
2023/03/21 06:12:56;;;;;;;5.60;2.55;;;;;;;23.46;36.56;99655.44;4374671;32;33670;-61
2023/03/21 06:15:25;;;;;;;4.12;2.72;;;;;;;23.45;36.62;99655.66;4375268;32;34033;-61
2023/03/21 06:17:53;;;;;;;5.47;2.80;;;;;;;23.46;36.57;99655.44;4373815;32;34603;-66
2023/03/21 06:20:21;;;;;;;4.55;2.35;;;;;;;23.45;36.57;99658.37;4347455;32;32985;-62
2023/03/21 06:22:49;;;;;;;4.95;2.45;;;;;;;23.46;36.65;99660.88;4347046;32;32933;-61
2023/03/21 06:25:17;;;;;;;4.57;2.50;;;;;;;23.46;36.64;99657.34;4348359;32;33838;-60
2023/03/21 06:27:45;;;;;;;4.62;2.25;;;;;;;23.46;36.66;99657.34;4361352;32;34630;-61
2023/03/21 06:30:14;;;;;;;3.72;2.12;;;;;;;23.46;36.66;99654.59;4336851;32;33512;-62
2023/03/21 06:32:43;;;;;;;5.07;2.40;;;;;;;23.45;36.69;99658.37;4361578;32;33179;-66
2023/03/21 06:35:11;;;;;;;5.50;2.65;;;;;;;23.45;36.71;99661.91;4349363;32;33717;-65
2023/03/21 06:37:39;;;;;;;6.35;2.50;;;;;;;23.47;36.68;99662.53;4349357;32;34187;-65
2023/03/21 06:40:09;;;;;;;6.72;2.53;;;;;;;23.46;36.63;99657.34;4361543;32;34084;-66
2023/03/21 06:42:37;;;;;;;5.82;2.45;;;;;;;23.46;36.52;99654.59;4349079;32;33967;-65
2023/03/21 06:45:05;;;;;;;3.55;2.42;;;;;;;23.46;36.44;99660.06;4361245;32;34806;-65
2023/03/21 06:47:33;;;;;;;3.62;2.50;;;;;;;23.45;36.40;99661.09;4361376;32;34284;-66
2023/03/21 06:50:01;;;;;;;6.00;2.60;;;;;;;23.43;36.34;99655.88;4362576;32;33219;-68
2023/03/21 06:52:30;;;;;;;5.75;3.08;;;;;;;23.43;36.30;99656.72;4376465;32;34672;-65
2023/03/21 06:54:58;;;;;;;4.72;2.70;;;;;;;23.43;36.22;99655.88;4376184;32;33073;-65
2023/03/21 06:57:25;;;;;;;4.15;2.40;;;;;;;23.42;36.20;99656.94;4363678;32;34474;-71
2023/03/21 06:59:53;;;;;;;7.15;2.20;;;;;;;23.42;36.17;99656.94;4363556;32;33504;-67
2023/03/21 07:02:22;;;;;;;5.15;2.20;;;;;;;23.40;36.16;99662.59;4376338;32;33866;-66
2023/03/21 07:04:50;;;;;;;3.25;2.03;;;;;;;23.39;36.16;99655.50;4375825;32;34064;-67
2023/03/21 07:07:17;;;;;;;4.75;2.62;;;;;;;23.40;36.13;99657.16;4376228;32;33627;-66
2023/03/21 07:09:46;;;;;;;4.80;2.35;;;;;;;23.40;36.12;99662.59;4376211;32;33030;-71
2023/03/21 07:12:13;;;;;;;7.47;2.85;;;;;;;23.39;36.09;99666.41;4377280;32;34386;-66
2023/03/21 07:14:42;;;;;;;14.93;2.90;;;;;;;23.39;36.10;99668.28;4376161;32;33914;-65
2023/03/21 07:17:10;;;;;;;8.90;2.55;;;;;;;23.38;36.18;99663.91;4375889;32;33773;-66
2023/03/21 07:19:37;;;;;;;11.18;2.80;;;;;;;23.37;36.17;99668.53;4375632;32;33131;-70
2023/03/21 07:22:04;;;;;;;9.18;2.78;;;;;;;23.37;36.16;99664.97;4377083;32;34665;-68
2023/03/21 07:24:32;;;;;;;6.32;2.33;;;;;;;23.37;36.14;99667.69;4377167;32;35419;-67
2023/03/21 07:27:00;;;;;;;5.43;2.40;;;;;;;23.36;36.14;99672.31;4377255;32;33398;-69
2023/03/21 07:29:27;;;;;;;3.90;2.22;;;;;;;23.38;36.11;99672.09;4374869;32;33464;-66
2023/03/21 07:31:55;;;;;;;5.68;2.53;;;;;;;23.36;36.06;99680.50;4375506;32;34689;-70
2023/03/21 07:34:23;;;;;;;6.60;2.72;;;;;;;23.38;36.03;99677.53;4374460;32;34731;-69
2023/03/21 07:36:50;;;;;;;6.43;2.22;;;;;;;23.39;36.01;99681.91;4376975;32;34285;-66
2023/03/21 07:39:19;;;;;;;8.25;2.80;;;;;;;23.38;36.01;99677.53;4376776;32;33072;-67
2023/03/21 07:41:46;;;;;;;8.02;3.08;;;;;;;23.39;36.08;99681.91;4374135;32;33410;-67
2023/03/21 07:44:18;;;;;;;7.18;2.30;;;;;;;23.39;36.12;99676.47;4375445;32;33994;-65
2023/03/21 07:46:46;;;;;;;5.20;2.42;;;;;;;23.40;36.14;99667.22;4375506;32;34303;-66
2023/03/21 07:49:15;;;;;;;5.82;2.85;;;;;;;23.39;36.21;99660.94;4374662;32;33008;-67
2023/03/21 07:51:42;;;;;;;6.47;2.60;;;;;;;23.41;36.21;99664.28;4360501;32;33853;-65
2023/03/21 07:54:10;;;;;;;7.53;2.50;;;;;;;23.41;36.23;99667.00;4333028;33;33663;-65
2023/03/21 07:56:37;;;;;;;4.87;2.37;;;;;;;23.41;36.31;99660.75;4345760;33;34570;-65
2023/03/21 07:59:06;;;;;;;3.70;2.17;;;;;;;23.41;36.36;99664.28;4345054;33;34045;-67
2023/03/21 08:01:34;;;;;;;7.20;2.53;;;;;;;23.42;36.38;99665.13;4345796;33;33396;-65
2023/03/21 08:04:01;;;;;;;6.20;2.42;;;;;;;23.44;36.38;99662.97;4347223;33;34117;-65
2023/03/21 08:06:31;;;;;;;7.15;2.60;;;;;;;23.48;36.36;99661.47;4345887;33;33536;-66
2023/03/21 08:08:58;;;;;;;5.53;2.78;;;;;;;23.49;36.34;99662.28;4353858;32;34211;-66
2023/03/21 08:11:30;;;;;;;7.82;2.58;;;;;;;23.52;36.32;99659.13;4380844;32;33954;-69
2023/03/21 08:13:58;;;;;;;9.65;2.17;;;;;;;23.53;36.28;99661.59;4363759;32;33319;-65
2023/03/21 08:16:26;;;;;;;6.20;2.50;;;;;;;23.54;36.25;99657.81;4373538;32;33859;-66
2023/03/21 08:18:54;;;;;;;4.53;2.55;;;;;;;23.56;36.23;99663.06;4344957;33;32369;-67
2023/03/21 08:21:21;;;;;;;4.68;2.60;;;;;;;23.56;36.21;99669.31;4370341;32;33818;-70
2023/03/21 08:23:49;;;;;;;6.22;2.47;;;;;;;23.59;36.20;99668.00;4356484;32;33556;-65
2023/03/21 08:26:17;;;;;;;6.03;2.30;;;;;;;23.59;36.21;99655.22;4360873;32;32703;-66
2023/03/21 08:28:45;;;;;;;6.03;2.40;;;;;;;23.60;36.27;99667.81;4360343;32;34078;-65
2023/03/21 08:31:13;;;;;;;6.55;2.17;;;;;;;23.62;36.39;99668.41;4359416;32;33512;-65
2023/03/21 08:33:41;;;;;;;5.50;2.08;;;;;;;23.64;36.49;99665.47;4361826;32;33797;-65
2023/03/21 08:36:09;;;;;;;3.55;2.20;;;;;;;23.65;36.59;99673.41;4361754;32;33922;-66
2023/03/21 08:38:37;;;;;;;8.10;2.45;;;;;;;23.68;36.67;99674.84;4348173;32;33222;-65
2023/03/21 08:41:04;;;;;;;5.47;2.15;;;;;;;23.68;36.71;99669.38;4361722;32;34312;-68
2023/03/21 08:43:32;;;;;;;6.37;2.78;;;;;;;23.71;36.75;99676.28;4360651;32;34167;-68
2023/03/21 08:46:02;;;;;;;5.60;2.12;;;;;;;23.72;36.79;99665.13;4360358;32;32719;-70
2023/03/21 08:48:30;;;;;;;5.35;2.50;;;;;;;23.73;36.79;99661.34;4359865;32;33457;-69
2023/03/21 08:51:01;;;;;;;5.45;2.62;;;;;;;23.75;36.79;99666.59;4361667;32;33823;-71
2023/03/21 08:53:28;;;;;;;5.97;2.17;;;;;;;23.75;36.88;99666.59;4361587;32;33847;-69
2023/03/21 08:55:56;;;;;;;5.30;2.42;;;;;;;23.77;36.91;99664.44;4361490;32;34255;-66
2023/03/21 08:58:23;;;;;;;8.60;2.58;;;;;;;23.77;36.97;99662.56;4361645;32;33426;-71
2023/03/21 09:00:51;;;;;;;5.75;2.17;;;;;;;23.79;37.04;99670.50;4361482;32;33957;-68
2023/03/21 09:03:19;;;;;;;6.15;2.80;;;;;;;23.81;37.06;99671.09;4361571;32;33684;-67
2023/03/21 09:05:46;;;;;;;5.78;2.60;;;;;;;23.81;37.15;99668.38;4360116;32;33821;-68
2023/03/21 09:08:14;;;;;;;7.55;2.55;;;;;;;23.81;37.24;99658.31;4372752;32;33471;-70
2023/03/21 09:10:42;;;;;;;6.47;2.50;;;;;;;23.83;37.33;99674.44;4359761;32;34105;-66
2023/03/21 09:13:09;;;;;;;6.97;2.40;;;;;;;23.84;37.42;99668.75;4372360;32;34791;-65
2023/03/21 09:15:37;;;;;;;6.78;2.50;;;;;;;23.85;37.46;99672.31;4361466;32;33945;-64
2023/03/21 09:18:12;;;;;;;6.75;2.85;;;;;;;23.85;37.49;99670.41;4360450;32;33762;-66
2023/03/21 09:20:41;;;;;;;7.05;2.50;;;;;;;23.87;37.53;99676.44;4360795;32;34671;-65
2023/03/21 09:23:10;;;;;;;6.93;3.00;;;;;;;23.88;37.57;99674.56;4348086;32;33623;-66
2023/03/21 09:25:37;;;;;;;5.20;2.20;;;;;;;23.89;37.52;99668.88;4372914;32;34192;-66
2023/03/21 09:28:06;;;;;;;7.28;2.50;;;;;;;23.87;37.64;99675.59;4362765;32;33296;-65
2023/03/21 09:30:35;;;;;;;6.15;2.50;;;;;;;23.87;37.48;99678.34;4372850;32;33601;-67
2023/03/21 09:33:05;;;;;;;6.78;2.35;;;;;;;23.84;37.27;99676.09;4360082;32;33935;-66
2023/03/21 09:35:33;;;;;;;8.93;2.50;;;;;;;23.84;37.12;99670.66;4360212;32;34339;-65
2023/03/21 09:38:01;;;;;;;9.00;2.90;;;;;;;23.85;37.01;99675.03;4359958;32;32202;-65
2023/03/21 09:41:03;;;;;;;3.90;2.30;;;;;;;23.84;36.97;99670.66;4359974;32;34215;-65
2023/03/21 09:43:38;;;;;;;5.75;2.50;;;;;;;23.86;36.91;99673.97;4352107;32;32850;-65
2023/03/21 09:46:31;;;;;;;8.80;2.42;;;;;;;23.83;36.93;99672.53;4347769;32;32589;-65
2023/03/21 09:49:01;;;;;;;11.40;2.47;;;;;;;23.83;36.90;99669.00;4359460;32;33458;-65
2023/03/21 09:51:32;;;;;;;5.37;2.62;;;;;;;23.81;36.94;99662.94;4359953;32;34760;-65
2023/03/21 09:54:05;;;;;;;8.35;2.87;;;;;;;23.81;36.90;99662.94;4347644;32;33905;-65
2023/03/21 09:56:35;;;;;;;8.63;2.58;;;;;;;23.82;36.83;99659.97;4359922;32;33899;-62
2023/03/21 09:59:03;;;;;;;;;;;;;;;23.83;36.76;99656.19;4348079;32;33358;-55
2023/03/21 10:01:40;;;;;;;8.70;3.47;;;;;;;23.92;36.58;99654.78;4348910;32;33981;-54
2023/03/21 10:04:11;;;;;;;8.35;3.55;;;;;;;23.84;36.03;99654.28;4362101;32;33985;-50
2023/03/21 10:06:40;;;;;;;6.40;3.28;;;;;;;23.79;35.45;99646.00;4358146;32;33604;-52
2023/03/21 10:09:13;;;;;;;6.35;3.17;;;;;;;23.74;35.01;99641.25;4358165;32;33461;-54
2023/03/21 10:12:07;;;;;;;4.87;3.05;;;;;;;23.70;34.53;99645.50;4370068;32;33402;-53
2023/03/21 10:14:42;;;;;;;5.87;2.95;;;;;;;23.66;34.42;99642.37;4363958;32;33757;-52
2023/03/21 10:17:32;;;;;;;6.55;3.30;;;;;;;23.63;34.24;99644.72;4363639;32;33760;-53
2023/03/21 10:20:20;;;;;;;6.12;2.80;;;;;;;23.59;34.03;99638.06;4364302;32;33362;-52
2023/03/21 10:22:50;;;;;;;6.07;3.47;;;;;;;23.57;33.86;99629.31;4365874;32;33652;-54
2023/03/21 10:25:20;;;;;;;5.12;2.65;;;;;;;23.51;33.49;99632.97;4348528;32;34040;-53
2023/03/21 10:27:47;;;;;;;5.53;2.70;;;;;;;23.47;33.20;99632.59;4361086;32;33824;-52
2023/03/21 10:30:45;;;;;;;4.32;2.37;;;;;;;23.42;33.19;99633.28;4360651;32;33672;-54
2023/03/21 10:33:19;;;;;;;5.82;2.17;;;;;;;23.44;33.35;99635.75;4361588;32;33371;-54
2023/03/21 10:35:55;;;;;;;4.87;2.55;;;;;;;23.41;33.51;99636.25;4360881;32;33901;-57
2023/03/21 10:38:24;;;;;;;5.50;2.58;;;;;;;23.40;33.64;99624.50;4348301;32;33050;-56
2023/03/21 10:40:52;;;;;;;5.28;2.22;;;;;;;23.39;33.67;99627.44;4348468;32;33481;-56
2023/03/21 10:43:29;;;;;;;4.97;2.30;;;;;;;23.39;33.74;99632.91;4361709;32;34636;-54
2023/03/21 10:45:56;;;;;;;3.80;2.12;;;;;;;23.39;33.78;99630.16;4361670;32;33931;-49
2023/03/21 10:48:24;;;;;;;3.45;1.92;;;;;;;23.40;33.82;99640.00;4361763;32;34227;-56
2023/03/21 10:50:53;;;;;;;4.90;2.20;;;;;;;23.40;33.94;99629.09;4360651;32;33506;-51
2023/03/21 10:53:31;;;;;;;4.47;2.28;;;;;;;23.38;33.98;99620.34;4372584;32;33914;-66
2023/03/21 10:55:59;;;;;;;5.72;2.00;;;;;;;23.38;34.00;99621.19;4361293;32;33918;-59
2023/03/21 10:58:32;;;;;;;3.30;2.12;;;;;;;23.36;34.06;99617.00;4347805;32;32681;-61
2023/03/21 11:01:04;;;;;;;4.03;2.05;;;;;;;23.38;34.12;99621.19;4355680;32;171054;-58
2023/03/21 11:03:36;;;;;;;4.22;2.00;;;;;;;23.40;34.21;99612.78;4349128;32;33070;-61
2023/03/21 11:06:25;;;;;;;4.95;2.00;;;;;;;23.40;34.35;99616.31;4361259;32;33536;-54
2023/03/21 11:08:54;;;;;;;5.32;1.90;;;;;;;23.39;34.39;99611.94;4361080;32;33511;-57
2023/03/21 11:11:28;;;;;;;4.75;1.80;;;;;;;23.45;34.46;99606.63;4360967;32;33321;-56
2023/03/21 11:14:05;;;;;;;5.28;1.80;;;;;;;23.55;34.52;99605.03;4362430;32;33537;-63
2023/03/21 11:16:35;;;;;;;3.58;1.50;;;;;;;23.69;34.43;99592.06;4361054;32;33635;-56
2023/03/21 11:19:18;;;;;;;4.00;1.85;;;;;;;23.87;34.34;99596.59;4362311;32;34313;-62
2023/03/21 11:21:45;;;;;;;4.73;1.63;;;;;;;24.01;34.27;99586.31;4360940;32;33086;-62
2023/03/21 11:24:16;;;;;;;2.90;1.58;;;;;;;24.16;34.14;99592.16;4360985;32;33336;-62
2023/03/21 11:26:46;;;;;;;3.95;1.70;;;;;;;24.30;34.06;99587.28;4361136;32;34741;-53
2023/03/21 11:29:17;;;;;;;3.62;1.70;;;;;;;24.42;33.95;99585.41;4361274;32;33926;-60
2023/03/21 11:31:45;;;;;;;2.75;1.65;;;;;;;24.53;33.86;99589.19;4362071;32;34123;-56
2023/03/21 11:34:37;;;;;;;2.75;1.60;;;;;;;24.62;33.78;99591.31;4360940;32;33933;-57
2023/03/21 11:37:17;;;;;;;6.05;1.60;;;;;;;24.72;33.71;99573.53;4360972;32;34957;-57
2023/03/21 11:39:44;;;;;;;2.90;1.67;;;;;;;24.79;33.63;99579.66;4361208;32;33695;-60
2023/03/21 11:42:31;;;;;;;2.00;1.40;;;;;;;24.81;33.61;99563.88;4348587;32;33307;-59
2023/03/21 11:45:01;;;;;;;2.80;1.30;;;;;;;24.87;33.56;99555.56;4348746;32;33580;-61
2023/03/21 11:47:30;;;;;;;2.65;1.48;;;;;;;24.88;33.56;99557.22;4361153;32;34984;-64
2023/03/21 11:49:58;;;;;;;2.70;1.60;;;;;;;24.90;33.51;99551.50;4348600;32;33894;-54
2023/03/21 11:52:37;;;;;;;2.30;1.30;;;;;;;24.91;33.49;99542.25;4362125;32;34270;-55
2023/03/21 11:55:30;;;;;;;2.55;1.40;;;;;;;24.92;33.49;99543.91;4360864;32;33822;-58
2023/03/21 11:58:25;;;;;;;3.55;1.37;;;;;;;24.94;33.46;99560.84;4361007;32;33906;-57